sensor_id;sensor_type;location;lat;lon;timestamp;temperature;humidity
19007;DHT22;9636;47.382;8.480;2023-08-30T00:01:30;19.00;99.00
19007;DHT22;9636;47.382;8.480;2023-08-30T00:03:57;19.00;99.10
19007;DHT22;9636;47.382;8.480;2023-08-30T00:06:24;19.00;99.10
19007;DHT22;9636;47.382;8.480;2023-08-30T00:08:51;19.00;99.10
19007;DHT22;9636;47.382;8.480;2023-08-30T00:11:17;19.00;99.10
19007;DHT22;9636;47.382;8.480;2023-08-30T00:13:46;18.90;99.10
19007;DHT22;9636;47.382;8.480;2023-08-30T00:16:13;18.90;99.10
19007;DHT22;9636;47.382;8.480;2023-08-30T00:18:42;19.00;99.10
19007;DHT22;9636;47.382;8.480;2023-08-30T00:21:10;18.90;99.10
19007;DHT22;9636;47.382;8.480;2023-08-30T00:23:36;18.90;99.10
19007;DHT22;9636;47.382;8.480;2023-08-30T00:26:03;18.90;99.10
19007;DHT22;9636;47.382;8.480;2023-08-30T00:28:30;18.90;99.10
19007;DHT22;9636;47.382;8.480;2023-08-30T00:30:58;18.90;99.10
19007;DHT22;9636;47.382;8.480;2023-08-30T00:33:25;18.90;99.10
19007;DHT22;9636;47.382;8.480;2023-08-30T00:35:58;18.90;99.10
19007;DHT22;9636;47.382;8.480;2023-08-30T00:38:26;18.90;99.10
19007;DHT22;9636;47.382;8.480;2023-08-30T00:40:53;18.80;99.10
19007;DHT22;9636;47.382;8.480;2023-08-30T00:43:21;18.80;99.10
19007;DHT22;9636;47.382;8.480;2023-08-30T00:45:48;18.80;99.10
19007;DHT22;9636;47.382;8.480;2023-08-30T00:48:17;18.80;99.10
19007;DHT22;9636;47.382;8.480;2023-08-30T00:50:45;18.80;99.10
19007;DHT22;9636;47.382;8.480;2023-08-30T00:53:12;18.80;99.10
19007;DHT22;9636;47.382;8.480;2023-08-30T00:55:41;18.80;99.10
19007;DHT22;9636;47.382;8.480;2023-08-30T00:58:09;18.80;99.10
19007;DHT22;9636;47.382;8.480;2023-08-30T01:00:36;18.70;99.10
19007;DHT22;9636;47.382;8.480;2023-08-30T01:03:05;18.80;99.20
19007;DHT22;9636;47.382;8.480;2023-08-30T01:05:33;18.70;99.10
19007;DHT22;9636;47.382;8.480;2023-08-30T01:08:01;18.70;99.10
19007;DHT22;9636;47.382;8.480;2023-08-30T01:10:38;18.70;99.10
19007;DHT22;9636;47.382;8.480;2023-08-30T01:13:09;18.70;99.10
19007;DHT22;9636;47.382;8.480;2023-08-30T01:15:39;18.70;99.10
19007;DHT22;9636;47.382;8.480;2023-08-30T01:18:07;18.70;99.10
19007;DHT22;9636;47.382;8.480;2023-08-30T01:20:38;18.70;99.10
19007;DHT22;9636;47.382;8.480;2023-08-30T01:23:06;18.70;99.10
19007;DHT22;9636;47.382;8.480;2023-08-30T01:25:52;18.70;99.10
19007;DHT22;9636;47.382;8.480;2023-08-30T01:28:24;18.70;99.10
19007;DHT22;9636;47.382;8.480;2023-08-30T01:30:53;18.60;99.10
19007;DHT22;9636;47.382;8.480;2023-08-30T01:33:21;18.60;99.10
19007;DHT22;9636;47.382;8.480;2023-08-30T01:35:49;18.60;99.10
19007;DHT22;9636;47.382;8.480;2023-08-30T01:38:17;18.60;99.10
19007;DHT22;9636;47.382;8.480;2023-08-30T01:40:44;18.60;99.10
19007;DHT22;9636;47.382;8.480;2023-08-30T01:43:12;18.60;99.10
19007;DHT22;9636;47.382;8.480;2023-08-30T01:45:42;18.60;99.50
19007;DHT22;9636;47.382;8.480;2023-08-30T01:48:11;18.60;99.10
19007;DHT22;9636;47.382;8.480;2023-08-30T01:50:40;18.60;99.10
19007;DHT22;9636;47.382;8.480;2023-08-30T01:53:07;18.60;99.20
19007;DHT22;9636;47.382;8.480;2023-08-30T01:55:35;18.60;99.20
19007;DHT22;9636;47.382;8.480;2023-08-30T01:58:03;18.60;99.10
19007;DHT22;9636;47.382;8.480;2023-08-30T02:00:30;18.50;99.10
19007;DHT22;9636;47.382;8.480;2023-08-30T02:02:58;18.50;99.10
19007;DHT22;9636;47.382;8.480;2023-08-30T02:05:25;18.50;99.10
19007;DHT22;9636;47.382;8.480;2023-08-30T02:07:56;18.50;99.10
19007;DHT22;9636;47.382;8.480;2023-08-30T02:10:28;18.50;99.20
19007;DHT22;9636;47.382;8.480;2023-08-30T02:12:57;18.50;99.10
19007;DHT22;9636;47.382;8.480;2023-08-30T02:15:27;18.50;99.20
19007;DHT22;9636;47.382;8.480;2023-08-30T02:17:55;18.50;99.20
19007;DHT22;9636;47.382;8.480;2023-08-30T02:20:23;18.50;99.10
19007;DHT22;9636;47.382;8.480;2023-08-30T02:22:50;18.50;99.20
19007;DHT22;9636;47.382;8.480;2023-08-30T02:25:17;18.50;99.20
19007;DHT22;9636;47.382;8.480;2023-08-30T02:27:44;18.50;99.20
19007;DHT22;9636;47.382;8.480;2023-08-30T02:30:11;18.40;99.10
19007;DHT22;9636;47.382;8.480;2023-08-30T02:32:38;18.40;99.10
19007;DHT22;9636;47.382;8.480;2023-08-30T02:35:05;18.40;99.20
19007;DHT22;9636;47.382;8.480;2023-08-30T02:37:33;18.40;99.20
19007;DHT22;9636;47.382;8.480;2023-08-30T02:40:00;18.40;99.20
19007;DHT22;9636;47.382;8.480;2023-08-30T02:42:28;18.40;99.20
19007;DHT22;9636;47.382;8.480;2023-08-30T02:44:55;18.40;99.20
19007;DHT22;9636;47.382;8.480;2023-08-30T02:47:21;18.40;99.20
19007;DHT22;9636;47.382;8.480;2023-08-30T02:49:48;18.40;99.20
19007;DHT22;9636;47.382;8.480;2023-08-30T02:52:15;18.40;99.20
19007;DHT22;9636;47.382;8.480;2023-08-30T02:54:43;18.30;99.20
19007;DHT22;9636;47.382;8.480;2023-08-30T02:57:10;18.30;99.20
19007;DHT22;9636;47.382;8.480;2023-08-30T02:59:37;18.30;99.20
19007;DHT22;9636;47.382;8.480;2023-08-30T03:02:03;18.30;99.20
19007;DHT22;9636;47.382;8.480;2023-08-30T03:04:30;18.30;99.30
19007;DHT22;9636;47.382;8.480;2023-08-30T03:06:57;18.30;99.20
19007;DHT22;9636;47.382;8.480;2023-08-30T03:09:24;18.30;99.20
19007;DHT22;9636;47.382;8.480;2023-08-30T03:11:52;18.30;99.20
19007;DHT22;9636;47.382;8.480;2023-08-30T03:14:19;18.30;99.20
19007;DHT22;9636;47.382;8.480;2023-08-30T03:16:45;18.30;99.30
19007;DHT22;9636;47.382;8.480;2023-08-30T03:19:12;18.30;99.30
19007;DHT22;9636;47.382;8.480;2023-08-30T03:21:39;18.20;99.20
19007;DHT22;9636;47.382;8.480;2023-08-30T03:24:06;18.20;99.20
19007;DHT22;9636;47.382;8.480;2023-08-30T03:26:33;18.20;99.20
19007;DHT22;9636;47.382;8.480;2023-08-30T03:29:01;18.30;99.20
19007;DHT22;9636;47.382;8.480;2023-08-30T03:31:28;18.20;99.20
19007;DHT22;9636;47.382;8.480;2023-08-30T03:33:55;18.20;99.20
19007;DHT22;9636;47.382;8.480;2023-08-30T03:36:22;18.20;99.30
19007;DHT22;9636;47.382;8.480;2023-08-30T03:38:49;18.20;99.30
19007;DHT22;9636;47.382;8.480;2023-08-30T03:41:17;18.20;99.30
19007;DHT22;9636;47.382;8.480;2023-08-30T03:43:44;18.20;99.30
19007;DHT22;9636;47.382;8.480;2023-08-30T03:46:12;18.20;99.30
19007;DHT22;9636;47.382;8.480;2023-08-30T03:48:39;18.20;99.30
19007;DHT22;9636;47.382;8.480;2023-08-30T03:51:06;18.10;99.20
19007;DHT22;9636;47.382;8.480;2023-08-30T03:53:33;18.10;99.20
19007;DHT22;9636;47.382;8.480;2023-08-30T03:55:59;18.10;99.20
19007;DHT22;9636;47.382;8.480;2023-08-30T03:58:26;18.10;99.20
19007;DHT22;9636;47.382;8.480;2023-08-30T04:00:53;18.20;99.30
19007;DHT22;9636;47.382;8.480;2023-08-30T04:03:21;18.10;99.30
19007;DHT22;9636;47.382;8.480;2023-08-30T04:05:53;18.10;99.30
19007;DHT22;9636;47.382;8.480;2023-08-30T04:08:20;18.10;99.30
19007;DHT22;9636;47.382;8.480;2023-08-30T04:10:47;18.10;99.30
19007;DHT22;9636;47.382;8.480;2023-08-30T04:13:14;18.10;99.30
19007;DHT22;9636;47.382;8.480;2023-08-30T04:15:41;18.10;99.30
19007;DHT22;9636;47.382;8.480;2023-08-30T04:18:08;18.10;99.30
19007;DHT22;9636;47.382;8.480;2023-08-30T04:20:36;18.10;99.30
19007;DHT22;9636;47.382;8.480;2023-08-30T04:23:09;18.10;99.30
19007;DHT22;9636;47.382;8.480;2023-08-30T04:25:37;18.00;99.30
19007;DHT22;9636;47.382;8.480;2023-08-30T04:28:04;18.10;99.30
19007;DHT22;9636;47.382;8.480;2023-08-30T04:30:31;18.10;99.30
19007;DHT22;9636;47.382;8.480;2023-08-30T04:32:58;18.10;99.60
19007;DHT22;9636;47.382;8.480;2023-08-30T04:35:28;18.00;99.30
19007;DHT22;9636;47.382;8.480;2023-08-30T04:37:57;18.00;99.30
19007;DHT22;9636;47.382;8.480;2023-08-30T04:40:24;18.00;99.30
19007;DHT22;9636;47.382;8.480;2023-08-30T04:42:50;18.00;99.20
19007;DHT22;9636;47.382;8.480;2023-08-30T04:45:17;18.00;99.30
19007;DHT22;9636;47.382;8.480;2023-08-30T04:47:44;18.00;99.20
19007;DHT22;9636;47.382;8.480;2023-08-30T04:50:11;18.00;99.30
19007;DHT22;9636;47.382;8.480;2023-08-30T04:52:38;18.00;99.20
19007;DHT22;9636;47.382;8.480;2023-08-30T04:55:07;18.00;99.20
19007;DHT22;9636;47.382;8.480;2023-08-30T04:57:34;18.00;99.30
19007;DHT22;9636;47.382;8.480;2023-08-30T05:00:01;18.00;99.30
19007;DHT22;9636;47.382;8.480;2023-08-30T05:02:30;18.00;99.20
19007;DHT22;9636;47.382;8.480;2023-08-30T05:04:58;18.00;99.60
19007;DHT22;9636;47.382;8.480;2023-08-30T05:07:25;18.00;99.20
19007;DHT22;9636;47.382;8.480;2023-08-30T05:09:52;18.00;99.20
19007;DHT22;9636;47.382;8.480;2023-08-30T05:12:20;18.00;99.30
19007;DHT22;9636;47.382;8.480;2023-08-30T05:14:47;18.00;99.20
19007;DHT22;9636;47.382;8.480;2023-08-30T05:17:13;18.00;99.20
19007;DHT22;9636;47.382;8.480;2023-08-30T05:19:40;17.90;99.20
19007;DHT22;9636;47.382;8.480;2023-08-30T05:22:07;18.00;99.20
19007;DHT22;9636;47.382;8.480;2023-08-30T05:24:34;18.00;99.20
19007;DHT22;9636;47.382;8.480;2023-08-30T05:27:01;18.00;99.20
19007;DHT22;9636;47.382;8.480;2023-08-30T05:29:29;18.00;99.10
19007;DHT22;9636;47.382;8.480;2023-08-30T05:31:56;18.00;99.10
19007;DHT22;9636;47.382;8.480;2023-08-30T05:34:23;18.00;99.10
19007;DHT22;9636;47.382;8.480;2023-08-30T05:36:52;18.00;99.10
19007;DHT22;9636;47.382;8.480;2023-08-30T05:39:19;18.00;99.10
19007;DHT22;9636;47.382;8.480;2023-08-30T05:41:46;18.00;99.00
19007;DHT22;9636;47.382;8.480;2023-08-30T05:44:13;18.00;99.00
19007;DHT22;9636;47.382;8.480;2023-08-30T05:46:41;18.10;99.00
19007;DHT22;9636;47.382;8.480;2023-08-30T05:49:08;18.10;99.00
19007;DHT22;9636;47.382;8.480;2023-08-30T05:51:34;18.10;99.00
19007;DHT22;9636;47.382;8.480;2023-08-30T05:54:01;18.10;98.90
19007;DHT22;9636;47.382;8.480;2023-08-30T05:56:28;18.20;98.90
19007;DHT22;9636;47.382;8.480;2023-08-30T05:58:55;18.20;98.80
19007;DHT22;9636;47.382;8.480;2023-08-30T06:01:22;18.30;98.80
19007;DHT22;9636;47.382;8.480;2023-08-30T06:03:50;18.30;98.80
19007;DHT22;9636;47.382;8.480;2023-08-30T06:06:17;18.30;98.70
19007;DHT22;9636;47.382;8.480;2023-08-30T06:08:43;18.40;98.70
19007;DHT22;9636;47.382;8.480;2023-08-30T06:11:10;18.40;98.70
19007;DHT22;9636;47.382;8.480;2023-08-30T06:13:37;18.50;98.60
19007;DHT22;9636;47.382;8.480;2023-08-30T06:16:04;18.50;98.60
19007;DHT22;9636;47.382;8.480;2023-08-30T06:18:31;18.50;98.60
19007;DHT22;9636;47.382;8.480;2023-08-30T06:20:59;18.50;98.50
19007;DHT22;9636;47.382;8.480;2023-08-30T06:23:26;18.60;98.50
19007;DHT22;9636;47.382;8.480;2023-08-30T06:25:53;18.60;98.50
19007;DHT22;9636;47.382;8.480;2023-08-30T06:28:20;18.60;98.50
19007;DHT22;9636;47.382;8.480;2023-08-30T06:30:47;18.70;98.50
19007;DHT22;9636;47.382;8.480;2023-08-30T06:33:14;18.70;98.40
19007;DHT22;9636;47.382;8.480;2023-08-30T06:35:40;18.90;98.40
19007;DHT22;9636;47.382;8.480;2023-08-30T06:38:09;19.00;98.30
19007;DHT22;9636;47.382;8.480;2023-08-30T06:40:36;19.00;98.30
19007;DHT22;9636;47.382;8.480;2023-08-30T06:43:03;19.10;98.20
19007;DHT22;9636;47.382;8.480;2023-08-30T06:45:30;19.10;98.20
19007;DHT22;9636;47.382;8.480;2023-08-30T06:47:57;19.20;98.10
19007;DHT22;9636;47.382;8.480;2023-08-30T06:50:23;19.30;98.10
19007;DHT22;9636;47.382;8.480;2023-08-30T06:52:50;19.30;98.00
19007;DHT22;9636;47.382;8.480;2023-08-30T06:55:18;19.40;97.90
19007;DHT22;9636;47.382;8.480;2023-08-30T06:57:47;19.50;97.80
19007;DHT22;9636;47.382;8.480;2023-08-30T07:00:15;19.70;97.80
19007;DHT22;9636;47.382;8.480;2023-08-30T07:02:42;19.80;97.70
19007;DHT22;9636;47.382;8.480;2023-08-30T07:05:12;19.90;97.50
19007;DHT22;9636;47.382;8.480;2023-08-30T07:07:39;20.10;97.40
19007;DHT22;9636;47.382;8.480;2023-08-30T07:10:06;20.20;97.40
19007;DHT22;9636;47.382;8.480;2023-08-30T07:12:35;20.30;97.30
19007;DHT22;9636;47.382;8.480;2023-08-30T07:15:01;20.40;97.10
19007;DHT22;9636;47.382;8.480;2023-08-30T07:17:29;20.50;97.10
19007;DHT22;9636;47.382;8.480;2023-08-30T07:19:56;20.50;97.00
19007;DHT22;9636;47.382;8.480;2023-08-30T07:22:23;20.60;96.90
19007;DHT22;9636;47.382;8.480;2023-08-30T07:24:50;20.70;96.90
19007;DHT22;9636;47.382;8.480;2023-08-30T07:27:16;20.70;96.80
19007;DHT22;9636;47.382;8.480;2023-08-30T07:29:45;20.70;96.70
19007;DHT22;9636;47.382;8.480;2023-08-30T07:32:11;20.80;96.60
19007;DHT22;9636;47.382;8.480;2023-08-30T07:34:38;20.90;96.60
19007;DHT22;9636;47.382;8.480;2023-08-30T07:37:05;20.90;96.40
19007;DHT22;9636;47.382;8.480;2023-08-30T07:39:32;21.10;96.30
19007;DHT22;9636;47.382;8.480;2023-08-30T07:41:58;21.20;96.20
19007;DHT22;9636;47.382;8.480;2023-08-30T07:44:25;21.20;96.10
19007;DHT22;9636;47.382;8.480;2023-08-30T07:46:53;21.30;96.00
19007;DHT22;9636;47.382;8.480;2023-08-30T07:49:20;21.40;96.00
19007;DHT22;9636;47.382;8.480;2023-08-30T07:51:47;21.40;95.90
19007;DHT22;9636;47.382;8.480;2023-08-30T07:54:13;21.50;95.90
19007;DHT22;9636;47.382;8.480;2023-08-30T07:56:40;21.50;95.90
19007;DHT22;9636;47.382;8.480;2023-08-30T07:59:07;21.50;95.90
19007;DHT22;9636;47.382;8.480;2023-08-30T08:01:34;21.60;95.90
19007;DHT22;9636;47.382;8.480;2023-08-30T08:04:02;21.60;95.90
19007;DHT22;9636;47.382;8.480;2023-08-30T08:06:29;21.60;95.90
19007;DHT22;9636;47.382;8.480;2023-08-30T08:08:55;21.60;95.80
19007;DHT22;9636;47.382;8.480;2023-08-30T08:11:22;21.60;95.80
19007;DHT22;9636;47.382;8.480;2023-08-30T08:13:49;21.60;95.80
19007;DHT22;9636;47.382;8.480;2023-08-30T08:16:16;21.70;95.80
19007;DHT22;9636;47.382;8.480;2023-08-30T08:18:42;21.70;95.70
19007;DHT22;9636;47.382;8.480;2023-08-30T08:21:11;21.80;95.60
19007;DHT22;9636;47.382;8.480;2023-08-30T08:23:37;21.90;95.50
19007;DHT22;9636;47.382;8.480;2023-08-30T08:26:04;22.00;95.40
19007;DHT22;9636;47.382;8.480;2023-08-30T08:28:33;22.10;95.30
19007;DHT22;9636;47.382;8.480;2023-08-30T08:31:00;22.20;95.20
19007;DHT22;9636;47.382;8.480;2023-08-30T08:33:27;22.30;95.20
19007;DHT22;9636;47.382;8.480;2023-08-30T08:35:54;22.30;95.10
19007;DHT22;9636;47.382;8.480;2023-08-30T08:38:22;22.40;95.00
19007;DHT22;9636;47.382;8.480;2023-08-30T08:40:51;22.50;95.00
19007;DHT22;9636;47.382;8.480;2023-08-30T08:43:19;22.50;94.90
19007;DHT22;9636;47.382;8.480;2023-08-30T08:45:47;22.60;94.90
19007;DHT22;9636;47.382;8.480;2023-08-30T08:48:14;22.60;94.80
19007;DHT22;9636;47.382;8.480;2023-08-30T08:50:41;22.70;94.80
19007;DHT22;9636;47.382;8.480;2023-08-30T08:53:09;22.70;94.80
19007;DHT22;9636;47.382;8.480;2023-08-30T08:55:38;22.80;94.80
19007;DHT22;9636;47.382;8.480;2023-08-30T08:58:06;22.90;94.70
19007;DHT22;9636;47.382;8.480;2023-08-30T09:00:33;23.00;94.70
19007;DHT22;9636;47.382;8.480;2023-08-30T09:03:01;23.00;94.60
19007;DHT22;9636;47.382;8.480;2023-08-30T09:05:30;23.10;94.50
19007;DHT22;9636;47.382;8.480;2023-08-30T09:07:58;23.20;94.50
19007;DHT22;9636;47.382;8.480;2023-08-30T09:10:25;23.30;94.40
19007;DHT22;9636;47.382;8.480;2023-08-30T09:12:53;23.40;94.40
19007;DHT22;9636;47.382;8.480;2023-08-30T09:15:20;23.50;94.30
19007;DHT22;9636;47.382;8.480;2023-08-30T09:17:47;23.50;94.20
19007;DHT22;9636;47.382;8.480;2023-08-30T09:20:15;23.60;94.10
19007;DHT22;9636;47.382;8.480;2023-08-30T09:22:43;23.80;94.10
19007;DHT22;9636;47.382;8.480;2023-08-30T09:25:21;23.70;94.10
19007;DHT22;9636;47.382;8.480;2023-08-30T09:27:49;23.60;94.20
19007;DHT22;9636;47.382;8.480;2023-08-30T09:30:21;23.60;94.30
19007;DHT22;9636;47.382;8.480;2023-08-30T09:32:48;23.60;94.40
19007;DHT22;9636;47.382;8.480;2023-08-30T09:35:15;23.60;94.40
19007;DHT22;9636;47.382;8.480;2023-08-30T09:37:44;23.60;94.50
19007;DHT22;9636;47.382;8.480;2023-08-30T09:40:11;23.60;94.50
19007;DHT22;9636;47.382;8.480;2023-08-30T09:42:40;23.60;94.50
19007;DHT22;9636;47.382;8.480;2023-08-30T09:45:18;23.60;94.50
19007;DHT22;9636;47.382;8.480;2023-08-30T09:47:47;23.60;94.50
19007;DHT22;9636;47.382;8.480;2023-08-30T09:50:17;23.60;94.60
19007;DHT22;9636;47.382;8.480;2023-08-30T09:52:45;23.60;94.90
19007;DHT22;9636;47.382;8.480;2023-08-30T09:55:13;23.60;94.50
19007;DHT22;9636;47.382;8.480;2023-08-30T09:57:41;23.70;94.50
19007;DHT22;9636;47.382;8.480;2023-08-30T10:00:09;23.70;94.50
19007;DHT22;9636;47.382;8.480;2023-08-30T10:02:39;23.70;94.50
19007;DHT22;9636;47.382;8.480;2023-08-30T10:05:08;23.80;94.50
19007;DHT22;9636;47.382;8.480;2023-08-30T10:07:35;23.80;94.40
19007;DHT22;9636;47.382;8.480;2023-08-30T10:10:03;23.80;94.40
19007;DHT22;9636;47.382;8.480;2023-08-30T10:12:31;23.80;94.40
19007;DHT22;9636;47.382;8.480;2023-08-30T10:14:59;23.80;94.40
19007;DHT22;9636;47.382;8.480;2023-08-30T10:17:28;23.90;94.40
19007;DHT22;9636;47.382;8.480;2023-08-30T10:19:56;23.90;94.40
19007;DHT22;9636;47.382;8.480;2023-08-30T10:22:25;23.90;94.40
19007;DHT22;9636;47.382;8.480;2023-08-30T10:24:55;23.90;94.40
19007;DHT22;9636;47.382;8.480;2023-08-30T10:27:24;23.90;94.40
19007;DHT22;9636;47.382;8.480;2023-08-30T10:29:51;24.00;94.40
19007;DHT22;9636;47.382;8.480;2023-08-30T10:32:19;24.00;94.30
19007;DHT22;9636;47.382;8.480;2023-08-30T10:34:48;24.00;94.30
19007;DHT22;9636;47.382;8.480;2023-08-30T10:37:21;24.10;94.40
19007;DHT22;9636;47.382;8.480;2023-08-30T10:39:48;24.10;94.30
19007;DHT22;9636;47.382;8.480;2023-08-30T10:42:16;24.10;94.30
19007;DHT22;9636;47.382;8.480;2023-08-30T10:44:47;24.10;94.30
19007;DHT22;9636;47.382;8.480;2023-08-30T10:47:22;24.10;94.30
19007;DHT22;9636;47.382;8.480;2023-08-30T10:49:53;24.10;94.30
19007;DHT22;9636;47.382;8.480;2023-08-30T10:52:22;24.10;94.30
19007;DHT22;9636;47.382;8.480;2023-08-30T10:54:49;24.20;94.30
19007;DHT22;9636;47.382;8.480;2023-08-30T10:57:20;24.20;94.30
19007;DHT22;9636;47.382;8.480;2023-08-30T11:00:09;24.20;94.30
19007;DHT22;9636;47.382;8.480;2023-08-30T11:02:37;24.30;94.30
19007;DHT22;9636;47.382;8.480;2023-08-30T11:05:06;24.30;94.30
19007;DHT22;9636;47.382;8.480;2023-08-30T11:07:34;24.30;94.30
19007;DHT22;9636;47.382;8.480;2023-08-30T11:10:04;24.40;94.30
19007;DHT22;9636;47.382;8.480;2023-08-30T11:12:31;24.40;94.30
19007;DHT22;9636;47.382;8.480;2023-08-30T11:14:58;24.40;94.30
19007;DHT22;9636;47.382;8.480;2023-08-30T11:17:26;24.40;94.30
19007;DHT22;9636;47.382;8.480;2023-08-30T11:19:58;24.40;94.30
19007;DHT22;9636;47.382;8.480;2023-08-30T11:22:31;24.50;94.30
19007;DHT22;9636;47.382;8.480;2023-08-30T11:25:00;24.50;94.30
19007;DHT22;9636;47.382;8.480;2023-08-30T11:27:26;24.50;94.30
19007;DHT22;9636;47.382;8.480;2023-08-30T11:29:53;24.50;94.20
19007;DHT22;9636;47.382;8.480;2023-08-30T11:32:25;24.60;94.30
19007;DHT22;9636;47.382;8.480;2023-08-30T11:34:55;24.60;94.30
19007;DHT22;9636;47.382;8.480;2023-08-30T11:37:23;24.60;94.30
19007;DHT22;9636;47.382;8.480;2023-08-30T11:39:52;24.60;94.30
19007;DHT22;9636;47.382;8.480;2023-08-30T11:42:21;24.60;94.20
19007;DHT22;9636;47.382;8.480;2023-08-30T11:44:49;24.70;94.30
19007;DHT22;9636;47.382;8.480;2023-08-30T11:47:19;24.70;94.30
19007;DHT22;9636;47.382;8.480;2023-08-30T11:49:48;24.70;94.30
19007;DHT22;9636;47.382;8.480;2023-08-30T11:52:15;24.70;94.30
19007;DHT22;9636;47.382;8.480;2023-08-30T11:54:43;24.70;94.20
19007;DHT22;9636;47.382;8.480;2023-08-30T11:57:10;24.80;94.30
19007;DHT22;9636;47.382;8.480;2023-08-30T11:59:38;24.80;94.30
19007;DHT22;9636;47.382;8.480;2023-08-30T12:02:05;24.80;94.30
19007;DHT22;9636;47.382;8.480;2023-08-30T12:04:36;24.80;94.30
19007;DHT22;9636;47.382;8.480;2023-08-30T12:07:06;24.90;94.30
19007;DHT22;9636;47.382;8.480;2023-08-30T12:09:32;24.90;94.30
19007;DHT22;9636;47.382;8.480;2023-08-30T12:12:05;24.90;94.40
19007;DHT22;9636;47.382;8.480;2023-08-30T12:14:33;24.90;94.30
19007;DHT22;9636;47.382;8.480;2023-08-30T12:17:01;24.90;94.30
19007;DHT22;9636;47.382;8.480;2023-08-30T12:19:29;24.90;94.30
19007;DHT22;9636;47.382;8.480;2023-08-30T12:21:55;25.00;94.30
19007;DHT22;9636;47.382;8.480;2023-08-30T12:24:22;25.00;94.30
19007;DHT22;9636;47.382;8.480;2023-08-30T12:26:49;25.00;94.30
19007;DHT22;9636;47.382;8.480;2023-08-30T12:29:16;25.00;94.30
19007;DHT22;9636;47.382;8.480;2023-08-30T12:31:43;25.10;94.30
19007;DHT22;9636;47.382;8.480;2023-08-30T12:34:11;25.10;94.40
19007;DHT22;9636;47.382;8.480;2023-08-30T12:36:37;25.00;94.30
19007;DHT22;9636;47.382;8.480;2023-08-30T12:39:04;25.10;94.40
19007;DHT22;9636;47.382;8.480;2023-08-30T12:41:31;25.00;94.40
19007;DHT22;9636;47.382;8.480;2023-08-30T12:43:58;25.10;94.40
19007;DHT22;9636;47.382;8.480;2023-08-30T12:46:25;25.10;94.40
19007;DHT22;9636;47.382;8.480;2023-08-30T12:48:52;25.10;94.40
19007;DHT22;9636;47.382;8.480;2023-08-30T12:51:20;25.10;94.40
19007;DHT22;9636;47.382;8.480;2023-08-30T12:53:46;25.20;94.40
19007;DHT22;9636;47.382;8.480;2023-08-30T12:56:13;25.10;94.40
19007;DHT22;9636;47.382;8.480;2023-08-30T12:58:40;25.20;94.40
19007;DHT22;9636;47.382;8.480;2023-08-30T13:01:07;25.20;94.40
19007;DHT22;9636;47.382;8.480;2023-08-30T13:03:33;25.20;94.50
19007;DHT22;9636;47.382;8.480;2023-08-30T13:06:00;25.20;94.50
19007;DHT22;9636;47.382;8.480;2023-08-30T13:08:30;25.20;94.50
19007;DHT22;9636;47.382;8.480;2023-08-30T13:10:59;25.20;94.50
19007;DHT22;9636;47.382;8.480;2023-08-30T13:13:26;25.20;94.60
19007;DHT22;9636;47.382;8.480;2023-08-30T13:15:52;25.30;94.50
19007;DHT22;9636;47.382;8.480;2023-08-30T13:18:19;25.40;94.30
19007;DHT22;9636;47.382;8.480;2023-08-30T13:20:47;25.50;94.30
19007;DHT22;9636;47.382;8.480;2023-08-30T13:23:13;25.50;94.20
19007;DHT22;9636;47.382;8.480;2023-08-30T13:25:41;25.60;94.20
19007;DHT22;9636;47.382;8.480;2023-08-30T13:28:08;25.60;94.20
19007;DHT22;9636;47.382;8.480;2023-08-30T13:30:35;25.60;94.20
19007;DHT22;9636;47.382;8.480;2023-08-30T13:33:02;25.70;94.10
19007;DHT22;9636;47.382;8.480;2023-08-30T13:35:29;25.70;94.10
19007;DHT22;9636;47.382;8.480;2023-08-30T13:37:55;25.70;94.00
19007;DHT22;9636;47.382;8.480;2023-08-30T13:40:22;25.80;94.00
19007;DHT22;9636;47.382;8.480;2023-08-30T13:42:50;25.90;94.10
19007;DHT22;9636;47.382;8.480;2023-08-30T13:45:17;25.90;94.40
19007;DHT22;9636;47.382;8.480;2023-08-30T13:47:44;25.90;94.00
19007;DHT22;9636;47.382;8.480;2023-08-30T13:50:12;25.90;94.00
19007;DHT22;9636;47.382;8.480;2023-08-30T13:52:39;25.90;94.00
19007;DHT22;9636;47.382;8.480;2023-08-30T13:55:06;25.90;94.00
19007;DHT22;9636;47.382;8.480;2023-08-30T13:57:33;26.00;94.00
19007;DHT22;9636;47.382;8.480;2023-08-30T14:00:02;25.90;94.00
19007;DHT22;9636;47.382;8.480;2023-08-30T14:02:33;26.00;94.00
19007;DHT22;9636;47.382;8.480;2023-08-30T14:05:00;26.10;93.90
19007;DHT22;9636;47.382;8.480;2023-08-30T14:07:27;26.20;94.20
19007;DHT22;9636;47.382;8.480;2023-08-30T14:09:53;26.30;93.70
19007;DHT22;9636;47.382;8.480;2023-08-30T14:12:20;26.40;93.70
19007;DHT22;9636;47.382;8.480;2023-08-30T14:14:47;26.40;93.70
19007;DHT22;9636;47.382;8.480;2023-08-30T14:17:15;26.60;93.50
19007;DHT22;9636;47.382;8.480;2023-08-30T14:19:42;27.00;92.90
19007;DHT22;9636;47.382;8.480;2023-08-30T14:22:09;27.30;92.40
19007;DHT22;9636;47.382;8.480;2023-08-30T14:24:36;27.20;92.70
19007;DHT22;9636;47.382;8.480;2023-08-30T14:27:03;27.10;92.80
19007;DHT22;9636;47.382;8.480;2023-08-30T14:29:30;27.10;92.90
19007;DHT22;9636;47.382;8.480;2023-08-30T14:31:57;26.80;93.30
19007;DHT22;9636;47.382;8.480;2023-08-30T14:34:25;26.60;93.50
19007;DHT22;9636;47.382;8.480;2023-08-30T14:36:53;26.50;93.70
19007;DHT22;9636;47.382;8.480;2023-08-30T14:39:20;26.40;93.80
19007;DHT22;9636;47.382;8.480;2023-08-30T14:41:47;26.30;93.90
19007;DHT22;9636;47.382;8.480;2023-08-30T14:44:14;26.30;94.00
19007;DHT22;9636;47.382;8.480;2023-08-30T14:46:40;26.30;94.10
19007;DHT22;9636;47.382;8.480;2023-08-30T14:49:07;26.30;94.10
19007;DHT22;9636;47.382;8.480;2023-08-30T14:51:35;26.20;94.10
19007;DHT22;9636;47.382;8.480;2023-08-30T14:54:02;26.20;94.20
19007;DHT22;9636;47.382;8.480;2023-08-30T14:56:29;26.20;94.30
19007;DHT22;9636;47.382;8.480;2023-08-30T14:58:56;26.10;94.30
19007;DHT22;9636;47.382;8.480;2023-08-30T15:01:23;26.20;94.30
19007;DHT22;9636;47.382;8.480;2023-08-30T15:03:50;26.20;94.30
19007;DHT22;9636;47.382;8.480;2023-08-30T15:06:17;26.20;94.20
19007;DHT22;9636;47.382;8.480;2023-08-30T15:08:45;26.20;94.10
19007;DHT22;9636;47.382;8.480;2023-08-30T15:11:12;26.30;94.10
19007;DHT22;9636;47.382;8.480;2023-08-30T15:13:39;26.30;94.10
19007;DHT22;9636;47.382;8.480;2023-08-30T15:16:05;26.30;94.00
19007;DHT22;9636;47.382;8.480;2023-08-30T15:18:32;26.30;94.00
19007;DHT22;9636;47.382;8.480;2023-08-30T15:20:59;26.40;94.00
19007;DHT22;9636;47.382;8.480;2023-08-30T15:23:27;26.40;94.00
19007;DHT22;9636;47.382;8.480;2023-08-30T15:25:55;26.40;94.00
19007;DHT22;9636;47.382;8.480;2023-08-30T15:28:22;26.40;94.00
19007;DHT22;9636;47.382;8.480;2023-08-30T15:30:49;26.40;94.00
19007;DHT22;9636;47.382;8.480;2023-08-30T15:33:17;26.50;93.90
19007;DHT22;9636;47.382;8.480;2023-08-30T15:35:43;26.40;94.00
19007;DHT22;9636;47.382;8.480;2023-08-30T15:38:10;26.50;93.90
19007;DHT22;9636;47.382;8.480;2023-08-30T15:40:39;26.50;94.00
19007;DHT22;9636;47.382;8.480;2023-08-30T15:43:07;26.50;93.90
19007;DHT22;9636;47.382;8.480;2023-08-30T15:45:34;26.50;93.90
19007;DHT22;9636;47.382;8.480;2023-08-30T15:48:01;26.50;94.00